Página principal
METAR-TAF:

METAR-TAF

Aeroportos :

Horta, Açores, Portugal

Aeroporto da Horta

latitude: 38-31N, longitude: 028-43W, altura: 40 m

Observação actual do tempo

O boletim foi feito há 34 minutos, às 06:30 UTC
Vento 6 kt de norte
Temperatura 19°C
Humidade 78%
Pressão 1025 hPa
Visibilidade 10 km ou mais
Poucas nuvensa uma altura de 1800 ft

METAR: LPHR 120630Z 36006KT 9999 FEW018 19/15 Q1025

Hora: 07:04 (07:04 UTC)

Previsão

O boletim foi feito há 31 minutos, às 06:33 UTC
Previsão válida de 12 às 06 UTC a 12 às 15 UTC
Vento 8 kt de norte
Visibilidade 10 km ou mais
Nuvens dispersasa uma altura de 1800 ft
Tornando-se
de 12 às 10 UTC a 12 às 13 UTC
Vento 5 kt com direcção variável

TAF: LPHR 120633Z 1206/1215 01008KT 9999 SCT018 BECMG 1210/1213 VRB05KT

Observações e previsões do tempo de mais de 4000 aeroportos (mensagens METAR e TAF).

As estações disponíveis são os pontos amarelos e vermelhos sobre o mapa.

Mova o rato sobre o mapa para ver o nome da estação.

Depois clique no ponto para visualizar as observações e previsões meteorológicas.

Para alterar o mapa : clique nos botões verdes com uma cruz preta para aumentar o zoom; no botão verde com uma pitada de zoom; ou nas setas verdes para mapas adjacentes.


METAR-TAF: